Time;durP1;ratioP1;P1;durP2;ratioP2;P2;SDS_P1;SDS_P2;PMS_P1;PMS_P2;Temp;Humidity;BMP_temperature;BMP_pressure;BME280_temperature;BME280_humidity;BME280_pressure;Samples;Min_cycle;Max_cycle;Signal;HPM_P1;HPM_P2
2023/07/24 00:00:12;;;;;;;8.20;6.63;;;;;;;;;;5043454;28;20199;-80
2023/07/24 00:02:38;;;;;;;10.00;7.30;;;;;;;;;;5037231;28;20325;-81
2023/07/24 00:05:03;;;;;;;7.40;6.23;;;;;;;;;;5042795;28;20263;-81
2023/07/24 00:07:28;;;;;;;6.67;6.03;;;;;;;;;;5046790;28;20271;-81
2023/07/24 00:09:55;;;;;;;10.30;7.97;;;;;;;;;;5041233;28;20180;-81
2023/07/24 00:12:20;;;;;;;7.73;6.93;;;;;;;;;;5045397;28;20453;-82
2023/07/24 00:14:45;;;;;;;9.63;7.10;;;;;;;;;;5039904;28;20261;-81
2023/07/24 00:17:10;;;;;;;7.00;6.03;;;;;;;;;;5036374;28;20184;-81
2023/07/24 00:19:35;;;;;;;9.80;7.13;;;;;;;;;;5039650;28;20189;-82
2023/07/24 00:22:01;;;;;;;8.60;6.60;;;;;;;;;;5037084;28;20322;-81
2023/07/24 00:24:26;;;;;;;8.60;7.10;;;;;;;;;;5038319;28;20229;-81
2023/07/24 00:26:51;;;;;;;9.30;7.43;;;;;;;;;;5034103;28;20211;-82
2023/07/24 00:29:17;;;;;;;6.97;6.17;;;;;;;;;;5034313;28;20180;-81
2023/07/24 00:31:42;;;;;;;8.80;6.53;;;;;;;;;;5040537;28;20176;-82
2023/07/24 00:34:07;;;;;;;8.83;7.20;;;;;;;;;;5039370;28;20277;-82
2023/07/24 00:36:32;;;;;;;10.57;7.60;;;;;;;;;;5045219;28;20212;-82
2023/07/24 00:38:58;;;;;;;8.77;6.50;;;;;;;;;;5035636;28;20179;-82
2023/07/24 00:41:23;;;;;;;7.60;6.80;;;;;;;;;;5040692;28;20252;-82
2023/07/24 00:43:48;;;;;;;8.80;6.30;;;;;;;;;;5039281;28;20183;-82
2023/07/24 00:46:13;;;;;;;8.63;6.50;;;;;;;;;;5044123;28;20194;-82
2023/07/24 00:48:39;;;;;;;9.23;6.87;;;;;;;;;;5040219;28;20169;-82
2023/07/24 00:51:05;;;;;;;9.97;6.27;;;;;;;;;;5041586;28;20179;-82
2023/07/24 00:53:30;;;;;;;8.70;7.80;;;;;;;;;;5042946;28;20191;-82
2023/07/24 00:55:55;;;;;;;8.67;6.53;;;;;;;;;;5038596;28;20189;-82
2023/07/24 00:58:21;;;;;;;7.20;6.43;;;;;;;;;;5043594;28;20179;-83
2023/07/24 01:00:46;;;;;;;9.80;7.17;;;;;;;;;;5036610;28;20175;-82
2023/07/24 01:03:12;;;;;;;7.73;6.10;;;;;;;;;;5043585;28;20221;-82
2023/07/24 01:05:37;;;;;;;7.97;5.97;;;;;;;;;;5037376;28;20211;-82
2023/07/24 01:08:03;;;;;;;9.13;6.77;;;;;;;;;;5038803;28;20216;-82
2023/07/24 01:10:28;;;;;;;8.73;6.53;;;;;;;;;;5036156;28;20178;-82
2023/07/24 01:12:56;;;;;;;11.77;7.20;;;;;;;;;;5040616;28;20184;-82
2023/07/24 01:15:24;;;;;;;8.53;6.63;;;;;;;;;;5052063;28;20265;-82
2023/07/24 01:18:10;;;;;;;8.07;6.63;;;;;;;;;;5045656;28;20209;-82
2023/07/24 01:20:42;;;;;;;12.63;7.47;;;;;;;;;;5044093;28;20211;-82
2023/07/24 01:23:22;;;;;;;9.47;6.60;;;;;;;;;;5042832;28;20238;-82
2023/07/24 01:25:53;;;;;;;9.07;6.80;;;;;;;;;;5046534;28;20228;-83
2023/07/24 01:28:18;;;;;;;8.93;6.17;;;;;;;;;;5039435;28;20208;-82
2023/07/24 01:30:44;;;;;;;9.37;6.87;;;;;;;;;;5043320;28;20209;-82
2023/07/24 01:33:09;;;;;;;8.33;6.73;;;;;;;;;;5042970;28;20182;-82
2023/07/24 01:35:34;;;;;;;7.57;6.73;;;;;;;;;;5046075;28;20180;-81
2023/07/24 01:38:00;;;;;;;16.00;13.47;;;;;;;;;;5043159;28;20201;-81
2023/07/24 01:40:25;;;;;;;8.07;6.47;;;;;;;;;;5044413;28;20181;-81
2023/07/24 01:42:50;;;;;;;8.33;6.30;;;;;;;;;;5040705;28;20268;-81
2023/07/24 01:45:16;;;;;;;7.57;6.37;;;;;;;;;;5040823;28;20196;-81
2023/07/24 01:47:41;;;;;;;12.37;6.90;;;;;;;;;;5053119;28;20460;-81
2023/07/24 01:50:07;;;;;;;7.60;6.60;;;;;;;;;;5043219;28;20184;-81
2023/07/24 01:52:32;;;;;;;7.97;6.33;;;;;;;;;;5044895;28;20220;-81
2023/07/24 01:54:57;;;;;;;8.67;6.80;;;;;;;;;;5041375;28;20174;-81
2023/07/24 01:57:22;;;;;;;9.13;6.77;;;;;;;;;;5039202;28;20173;-80
2023/07/24 01:59:48;;;;;;;8.47;6.67;;;;;;;;;;5045051;28;20190;-80
2023/07/24 02:02:14;;;;;;;8.17;6.37;;;;;;;;;;5044523;28;20226;-80
2023/07/24 02:04:39;;;;;;;8.43;7.03;;;;;;;;;;5039667;28;20204;-80
2023/07/24 02:07:04;;;;;;;10.07;7.00;;;;;;;;;;5049199;28;20197;-80
2023/07/24 02:09:29;;;;;;;9.10;6.60;;;;;;;;;;5041060;28;20260;-80
2023/07/24 02:11:55;;;;;;;9.53;7.37;;;;;;;;;;5041818;28;20179;-80
2023/07/24 02:14:21;;;;;;;7.77;6.27;;;;;;;;;;5042811;28;20182;-80
2023/07/24 02:16:46;;;;;;;10.03;6.63;;;;;;;;;;5044591;28;20180;-80
2023/07/24 02:19:11;;;;;;;6.90;6.20;;;;;;;;;;5043780;28;20184;-80
2023/07/24 02:21:36;;;;;;;9.27;6.87;;;;;;;;;;5051286;28;20178;-80
2023/07/24 02:24:02;;;;;;;9.80;7.30;;;;;;;;;;5048234;28;20190;-80
2023/07/24 02:26:27;;;;;;;7.70;6.47;;;;;;;;;;5039874;28;20280;-80
2023/07/24 02:28:53;;;;;;;9.10;6.20;;;;;;;;;;5044075;28;20193;-80
2023/07/24 02:31:19;;;;;;;8.77;6.30;;;;;;;;;;5047518;28;20178;-80
2023/07/24 02:33:44;;;;;;;9.83;6.97;;;;;;;;;;5044340;28;20185;-80
2023/07/24 02:36:09;;;;;;;8.80;6.00;;;;;;;;;;5043148;28;20181;-80
2023/07/24 02:38:35;;;;;;;8.70;6.43;;;;;;;;;;5039915;28;20182;-81
2023/07/24 02:41:00;;;;;;;7.87;6.27;;;;;;;;;;5046404;28;20179;-80
2023/07/24 02:43:25;;;;;;;6.90;5.80;;;;;;;;;;5034808;28;20181;-80
2023/07/24 02:45:50;;;;;;;8.93;6.20;;;;;;;;;;5045824;28;20209;-80
2023/07/24 02:48:16;;;;;;;8.40;6.27;;;;;;;;;;5041245;28;20184;-81
2023/07/24 02:50:41;;;;;;;11.67;6.90;;;;;;;;;;5034630;28;20185;-80
2023/07/24 02:53:06;;;;;;;9.47;6.10;;;;;;;;;;5046887;28;20287;-81
2023/07/24 02:55:31;;;;;;;37.73;23.27;;;;;;;;;;5044932;28;20213;-81
2023/07/24 02:57:57;;;;;;;20.00;7.33;;;;;;;;;;5042779;28;20209;-80
2023/07/24 03:00:22;;;;;;;7.77;6.87;;;;;;;;;;5042659;28;20182;-81
2023/07/24 03:02:47;;;;;;;8.30;6.00;;;;;;;;;;5042264;28;20238;-80
2023/07/24 03:05:12;;;;;;;9.23;6.40;;;;;;;;;;5040890;28;20181;-81
2023/07/24 03:07:38;;;;;;;7.73;6.17;;;;;;;;;;5048928;28;20169;-81
2023/07/24 03:10:03;;;;;;;9.13;7.20;;;;;;;;;;5043284;28;20184;-81
2023/07/24 03:12:28;;;;;;;9.23;6.70;;;;;;;;;;5045847;28;20171;-80
2023/07/24 03:14:53;;;;;;;10.27;6.40;;;;;;;;;;5038251;28;20197;-81
2023/07/24 03:17:19;;;;;;;32.47;21.07;;;;;;;;;;5046172;28;20177;-80
2023/07/24 03:19:44;;;;;;;12.73;6.20;;;;;;;;;;5045477;28;20181;-82
2023/07/24 03:22:10;;;;;;;9.20;5.73;;;;;;;;;;5042748;28;20316;-80
2023/07/24 03:24:35;;;;;;;10.57;6.40;;;;;;;;;;5042962;28;20175;-81
2023/07/24 03:27:00;;;;;;;9.80;6.63;;;;;;;;;;5041132;28;20280;-80
2023/07/24 03:29:28;;;;;;;11.60;6.83;;;;;;;;;;5041889;28;20180;-81
2023/07/24 03:31:54;;;;;;;8.73;7.30;;;;;;;;;;5041820;28;20193;-80
2023/07/24 03:34:19;;;;;;;10.13;6.60;;;;;;;;;;5044157;28;20170;-80
2023/07/24 03:36:44;;;;;;;8.20;6.60;;;;;;;;;;5043264;28;20272;-80
2023/07/24 03:39:10;;;;;;;14.33;6.73;;;;;;;;;;5040602;28;20177;-80
2023/07/24 03:41:36;;;;;;;9.37;6.77;;;;;;;;;;5042642;28;20419;-80
2023/07/24 03:44:01;;;;;;;8.50;6.10;;;;;;;;;;5042828;28;20196;-80
2023/07/24 03:46:26;;;;;;;9.45;5.95;;;;;;;;;;5038107;28;20217;-80
2023/07/24 03:48:52;;;;;;;9.20;6.33;;;;;;;;;;5041597;28;20190;-80
2023/07/24 03:51:17;;;;;;;8.60;6.47;;;;;;;;;;5040945;28;20253;-80
2023/07/24 03:53:42;;;;;;;12.63;6.37;;;;;;;;;;5035815;28;20314;-80
2023/07/24 03:56:08;;;;;;;9.25;7.78;;;;;;;;;;5041046;28;20247;-81
2023/07/24 03:58:33;;;;;;;10.90;7.13;;;;;;;;;;5040083;28;20260;-80
2023/07/24 04:00:58;;;;;;;8.23;6.90;;;;;;;;;;5038990;28;20257;-80
2023/07/24 04:03:23;;;;;;;7.67;6.67;;;;;;;;;;5037592;28;20197;-80
2023/07/24 04:05:49;;;;;;;9.70;6.70;;;;;;;;;;5040269;28;20194;-80
2023/07/24 04:08:14;;;;;;;11.30;7.27;;;;;;;;;;5042139;28;20181;-80
2023/07/24 04:10:39;;;;;;;9.57;6.80;;;;;;;;;;5041749;28;20181;-80
2023/07/24 04:13:04;;;;;;;8.37;6.17;;;;;;;;;;5041676;28;20196;-80
2023/07/24 04:15:29;;;;;;;10.40;6.50;;;;;;;;;;5038921;28;20508;-81
2023/07/24 04:17:55;;;;;;;9.27;6.73;;;;;;;;;;5037346;28;20178;-80
2023/07/24 04:20:20;;;;;;;7.57;6.03;;;;;;;;;;5042649;28;20196;-80
2023/07/24 04:22:45;;;;;;;7.63;5.93;;;;;;;;;;5038011;28;20190;-80
2023/07/24 04:25:10;;;;;;;9.07;6.93;;;;;;;;;;5040893;28;20190;-80
2023/07/24 04:27:36;;;;;;;8.60;6.90;;;;;;;;;;5034583;28;20243;-80
2023/07/24 04:30:01;;;;;;;7.80;6.00;;;;;;;;;;5041562;28;20227;-80
2023/07/24 04:32:27;;;;;;;11.03;7.53;;;;;;;;;;5041352;28;20175;-80
2023/07/24 04:34:52;;;;;;;9.20;6.30;;;;;;;;;;5040759;28;20204;-80
2023/07/24 04:37:17;;;;;;;8.17;6.70;;;;;;;;;;5047658;28;20213;-80
2023/07/24 04:39:43;;;;;;;8.27;6.53;;;;;;;;;;5045735;28;20199;-80
2023/07/24 04:42:08;;;;;;;7.57;6.10;;;;;;;;;;5044189;28;20185;-80
2023/07/24 04:44:33;;;;;;;8.60;6.70;;;;;;;;;;5040546;28;20238;-80
2023/07/24 04:46:58;;;;;;;7.97;6.27;;;;;;;;;;5038421;28;20203;-80
2023/07/24 04:49:24;;;;;;;10.60;6.90;;;;;;;;;;5041675;28;20230;-79
2023/07/24 04:51:49;;;;;;;9.53;7.37;;;;;;;;;;5039151;28;20182;-80
2023/07/24 04:54:15;;;;;;;10.17;7.27;;;;;;;;;;5038747;28;20189;-79
2023/07/24 04:56:40;;;;;;;9.63;6.20;;;;;;;;;;5040019;28;20185;-80
2023/07/24 04:59:05;;;;;;;7.33;6.20;;;;;;;;;;5031064;28;20195;-79
2023/07/24 05:01:30;;;;;;;13.23;7.93;;;;;;;;;;5038927;28;20290;-80
2023/07/24 05:03:56;;;;;;;9.87;7.40;;;;;;;;;;5046224;28;20178;-79
2023/07/24 05:06:21;;;;;;;12.40;8.53;;;;;;;;;;5039154;28;20230;-79
2023/07/24 05:08:46;;;;;;;11.50;7.77;;;;;;;;;;5037619;28;20212;-79
2023/07/24 05:11:11;;;;;;;8.97;7.10;;;;;;;;;;5036680;28;20227;-79
2023/07/24 05:13:37;;;;;;;8.97;6.97;;;;;;;;;;5042541;28;20193;-79
2023/07/24 05:16:02;;;;;;;9.07;6.63;;;;;;;;;;5041800;28;20190;-79
2023/07/24 05:18:27;;;;;;;8.77;7.03;;;;;;;;;;5038928;28;20189;-79
2023/07/24 05:20:53;;;;;;;9.80;7.47;;;;;;;;;;5043589;28;20196;-79
2023/07/24 05:23:18;;;;;;;7.60;6.70;;;;;;;;;;5038395;28;20186;-80
2023/07/24 05:25:43;;;;;;;8.90;6.57;;;;;;;;;;5036827;28;20233;-80
2023/07/24 05:28:09;;;;;;;8.80;5.90;;;;;;;;;;5039264;28;20190;-80
2023/07/24 05:30:34;;;;;;;8.30;6.93;;;;;;;;;;5040308;28;20178;-80
2023/07/24 05:32:59;;;;;;;9.70;7.00;;;;;;;;;;5031656;28;20180;-79
2023/07/24 05:35:24;;;;;;;7.30;6.60;;;;;;;;;;5029524;28;20224;-80
2023/07/24 05:37:49;;;;;;;8.10;6.40;;;;;;;;;;5036374;28;20231;-80
2023/07/24 05:40:15;;;;;;;8.83;6.77;;;;;;;;;;5031146;28;20286;-80
2023/07/24 05:42:43;;;;;;;9.23;7.37;;;;;;;;;;5032630;28;20259;-80
2023/07/24 05:45:08;;;;;;;6.97;6.20;;;;;;;;;;5036028;28;20179;-80
2023/07/24 05:47:33;;;;;;;9.50;7.27;;;;;;;;;;5030280;28;20216;-80
2023/07/24 05:49:59;;;;;;;13.80;6.93;;;;;;;;;;5039261;28;20173;-79
2023/07/24 05:52:24;;;;;;;8.00;7.17;;;;;;;;;;5032597;28;20179;-80
2023/07/24 05:54:49;;;;;;;8.47;6.37;;;;;;;;;;5040041;28;20233;-80
2023/07/24 05:57:14;;;;;;;8.57;6.40;;;;;;;;;;5039163;28;20177;-80
2023/07/24 05:59:39;;;;;;;10.30;7.43;;;;;;;;;;5042997;28;20233;-80
2023/07/24 06:02:05;;;;;;;8.47;6.90;;;;;;;;;;5040093;28;20274;-80
2023/07/24 06:04:30;;;;;;;8.43;6.03;;;;;;;;;;5041070;28;20211;-80
2023/07/24 06:06:56;;;;;;;7.07;6.27;;;;;;;;;;5038535;28;20215;-80
2023/07/24 06:09:21;;;;;;;17.53;6.83;;;;;;;;;;5035548;28;20187;-80
2023/07/24 06:11:46;;;;;;;9.73;6.63;;;;;;;;;;5039062;28;20178;-80
2023/07/24 06:14:11;;;;;;;8.40;7.00;;;;;;;;;;5036483;28;20242;-80
2023/07/24 06:16:37;;;;;;;7.10;6.10;;;;;;;;;;5039040;28;20273;-80
2023/07/24 06:19:02;;;;;;;9.73;7.20;;;;;;;;;;5041496;28;20182;-80
2023/07/24 06:21:27;;;;;;;7.53;6.07;;;;;;;;;;5029278;28;20190;-80
2023/07/24 06:23:52;;;;;;;8.17;6.73;;;;;;;;;;5036449;28;20536;-80
2023/07/24 06:26:17;;;;;;;16.27;7.47;;;;;;;;;;5043011;28;20308;-80
2023/07/24 06:28:43;;;;;;;7.70;6.90;;;;;;;;;;5046251;28;20233;-80
2023/07/24 06:31:08;;;;;;;8.47;7.17;;;;;;;;;;5039591;28;20184;-80
2023/07/24 06:33:33;;;;;;;8.43;6.30;;;;;;;;;;5034533;28;20206;-80
2023/07/24 06:35:58;;;;;;;9.80;6.53;;;;;;;;;;5042702;28;20271;-79
2023/07/24 06:38:24;;;;;;;9.53;6.97;;;;;;;;;;5045381;28;20203;-80
2023/07/24 06:40:49;;;;;;;13.30;7.33;;;;;;;;;;5042976;28;20191;-80
2023/07/24 06:43:14;;;;;;;9.10;7.07;;;;;;;;;;5041131;28;20185;-80
2023/07/24 06:45:40;;;;;;;10.40;7.17;;;;;;;;;;5049494;28;20254;-80
2023/07/24 06:48:05;;;;;;;9.47;6.80;;;;;;;;;;5044670;28;20179;-79
2023/07/24 06:50:30;;;;;;;10.47;7.27;;;;;;;;;;5043414;28;20179;-80
2023/07/24 06:52:55;;;;;;;11.20;6.83;;;;;;;;;;5038086;28;20259;-79
2023/07/24 06:55:21;;;;;;;7.90;6.43;;;;;;;;;;5039168;28;20223;-79
2023/07/24 06:57:46;;;;;;;7.10;5.40;;;;;;;;;;5041704;28;20182;-79
2023/07/24 07:00:11;;;;;;;10.43;6.90;;;;;;;;;;5048090;28;20177;-79
2023/07/24 07:02:37;;;;;;;11.63;7.10;;;;;;;;;;5037019;28;20311;-79
2023/07/24 07:05:02;;;;;;;8.43;7.23;;;;;;;;;;5042467;28;20184;-79
2023/07/24 07:07:27;;;;;;;7.80;5.77;;;;;;;;;;5041449;28;20302;-79
2023/07/24 07:09:53;;;;;;;53.83;11.70;;;;;;;;;;5041333;28;20194;-79
2023/07/24 07:12:18;;;;;;;7.93;6.57;;;;;;;;;;5041173;28;20220;-79
2023/07/24 07:14:43;;;;;;;10.77;6.77;;;;;;;;;;5044123;28;20199;-79
2023/07/24 07:17:08;;;;;;;7.10;6.03;;;;;;;;;;5045114;28;20179;-79
2023/07/24 07:19:35;;;;;;;6.93;6.27;;;;;;;;;;5048314;28;20248;-79
2023/07/24 07:22:01;;;;;;;10.27;7.53;;;;;;;;;;5039690;28;20189;-78
2023/07/24 07:24:26;;;;;;;7.87;6.60;;;;;;;;;;5042220;28;20263;-79
2023/07/24 07:26:51;;;;;;;7.97;6.90;;;;;;;;;;5043245;28;20296;-79
2023/07/24 07:29:16;;;;;;;7.87;6.40;;;;;;;;;;5039372;28;20169;-79
2023/07/24 07:31:42;;;;;;;9.47;6.40;;;;;;;;;;5042384;28;20178;-79
2023/07/24 07:34:07;;;;;;;7.23;6.07;;;;;;;;;;5037068;28;20179;-79
2023/07/24 07:36:32;;;;;;;6.80;5.67;;;;;;;;;;5047435;28;20278;-79
2023/07/24 07:38:57;;;;;;;8.83;6.67;;;;;;;;;;5031879;28;20224;-79
2023/07/24 07:41:23;;;;;;;6.67;5.97;;;;;;;;;;5044907;28;20239;-80
2023/07/24 07:43:48;;;;;;;11.10;7.23;;;;;;;;;;5034582;28;20179;-79
2023/07/24 07:46:13;;;;;;;8.47;7.20;;;;;;;;;;5031967;28;20215;-79
2023/07/24 07:48:38;;;;;;;8.93;7.67;;;;;;;;;;5042371;28;20204;-80
2023/07/24 07:51:03;;;;;;;8.70;6.87;;;;;;;;;;5037535;28;20276;-79
2023/07/24 07:53:29;;;;;;;10.57;7.57;;;;;;;;;;5042476;28;20235;-80
2023/07/24 07:55:58;;;;;;;9.17;6.53;;;;;;;;;;5048138;28;20184;-78
2023/07/24 07:58:23;;;;;;;7.93;7.00;;;;;;;;;;5050584;28;20187;-77
2023/07/24 08:00:49;;;;;;;8.57;7.10;;;;;;;;;;5041320;28;20180;-77
2023/07/24 08:03:14;;;;;;;9.03;7.50;;;;;;;;;;5042435;28;20230;-77
2023/07/24 08:05:39;;;;;;;8.87;7.40;;;;;;;;;;5047506;28;20209;-77
2023/07/24 08:08:04;;;;;;;7.97;7.17;;;;;;;;;;5046811;28;20208;-78
2023/07/24 08:10:31;;;;;;;8.27;6.93;;;;;;;;;;5037137;28;20264;-77
2023/07/24 08:12:56;;;;;;;8.47;6.97;;;;;;;;;;5031842;28;20188;-78
2023/07/24 08:15:22;;;;;;;7.67;6.73;;;;;;;;;;5039985;28;20269;-75
2023/07/24 08:17:47;;;;;;;9.13;7.07;;;;;;;;;;5034010;28;20183;-78
2023/07/24 08:20:12;;;;;;;7.40;6.23;;;;;;;;;;5048591;28;20246;-79
2023/07/24 08:22:37;;;;;;;7.03;6.33;;;;;;;;;;5037317;28;20264;-79
2023/07/24 08:25:03;;;;;;;8.27;6.37;;;;;;;;;;5041073;28;20185;-79
2023/07/24 08:27:28;;;;;;;9.83;7.60;;;;;;;;;;5038446;28;20248;-80
2023/07/24 08:29:53;;;;;;;9.50;7.17;;;;;;;;;;5042687;28;20183;-79
2023/07/24 08:32:19;;;;;;;7.07;6.37;;;;;;;;;;5038816;28;20184;-80
2023/07/24 08:34:44;;;;;;;7.40;6.63;;;;;;;;;;5041155;28;20174;-80
2023/07/24 08:37:10;;;;;;;8.90;7.07;;;;;;;;;;5050383;28;20181;-80
2023/07/24 08:39:36;;;;;;;9.10;6.90;;;;;;;;;;5043582;28;20187;-80
2023/07/24 08:42:07;;;;;;;9.27;7.13;;;;;;;;;;5041121;28;20188;-80
2023/07/24 08:44:33;;;;;;;8.23;7.23;;;;;;;;;;5042921;28;20179;-81
2023/07/24 08:46:58;;;;;;;9.27;7.90;;;;;;;;;;5039885;28;20205;-80
2023/07/24 08:49:24;;;;;;;7.70;6.80;;;;;;;;;;5044664;28;20177;-81
2023/07/24 08:51:49;;;;;;;10.83;6.60;;;;;;;;;;5048052;28;20224;-82
2023/07/24 08:54:15;;;;;;;7.57;6.00;;;;;;;;;;5045204;28;20188;-82
2023/07/24 08:56:41;;;;;;;8.63;6.23;;;;;;;;;;5046202;28;20180;-82
2023/07/24 08:59:06;;;;;;;7.37;6.67;;;;;;;;;;5047782;28;20241;-82
2023/07/24 09:01:32;;;;;;;6.13;5.53;;;;;;;;;;5043999;28;20228;-82
2023/07/24 09:03:57;;;;;;;7.70;6.80;;;;;;;;;;5040249;28;20196;-82
2023/07/24 09:06:22;;;;;;;8.00;6.43;;;;;;;;;;5043335;28;20213;-83
2023/07/24 09:08:47;;;;;;;9.23;6.40;;;;;;;;;;5045047;28;20181;-83
2023/07/24 09:11:14;;;;;;;9.03;7.20;;;;;;;;;;5044422;28;20184;-82
2023/07/24 09:13:41;;;;;;;7.57;6.40;;;;;;;;;;5042279;28;20183;-83
2023/07/24 09:16:07;;;;;;;10.70;6.73;;;;;;;;;;5038658;28;20191;-82
2023/07/24 09:18:42;;;;;;;8.23;6.10;;;;;;;;;;5041550;28;20176;-82
2023/07/24 09:21:08;;;;;;;7.00;6.00;;;;;;;;;;5039642;28;20179;-83
2023/07/24 09:23:33;;;;;;;6.77;5.83;;;;;;;;;;5047242;28;20193;-82
2023/07/24 09:25:58;;;;;;;6.63;5.47;;;;;;;;;;5037959;28;20245;-82
2023/07/24 09:28:24;;;;;;;10.60;9.57;;;;;;;;;;5042502;28;20326;-83
2023/07/24 09:30:53;;;;;;;8.00;5.33;;;;;;;;;;5039307;28;20220;-81
2023/07/24 09:33:18;;;;;;;7.60;6.55;;;;;;;;;;5037205;28;20176;-82
2023/07/24 09:35:43;;;;;;;9.17;6.73;;;;;;;;;;5036979;28;20251;-82
2023/07/24 09:38:09;;;;;;;7.40;6.40;;;;;;;;;;5045126;28;20185;-82
2023/07/24 09:40:40;;;;;;;7.13;6.13;;;;;;;;;;5045097;28;20203;-82
2023/07/24 09:43:14;;;;;;;7.03;6.20;;;;;;;;;;5043837;28;20179;-83
2023/07/24 09:45:40;;;;;;;8.10;6.70;;;;;;;;;;5044970;28;20178;-82
2023/07/24 09:48:10;;;;;;;6.87;6.17;;;;;;;;;;5043498;28;20185;-82
2023/07/24 09:50:36;;;;;;;7.10;6.40;;;;;;;;;;5045658;28;20181;-82
2023/07/24 09:53:01;;;;;;;7.43;6.33;;;;;;;;;;5050295;28;20197;-82
2023/07/24 09:55:30;;;;;;;9.67;7.37;;;;;;;;;;5044406;28;20178;-83
2023/07/24 09:57:56;;;;;;;6.32;5.72;;;;;;;;;;5047276;28;20191;-83
2023/07/24 10:00:22;;;;;;;6.70;6.00;;;;;;;;;;5042533;28;20190;-83
2023/07/24 10:02:48;;;;;;;7.32;6.05;;;;;;;;;;5047679;28;20226;-83
2023/07/24 10:05:13;;;;;;;6.53;5.67;;;;;;;;;;5043472;28;20180;-83
2023/07/24 10:07:39;;;;;;;7.83;5.57;;;;;;;;;;5038034;28;20229;-83
2023/07/24 10:10:04;;;;;;;8.07;7.27;;;;;;;;;;5047567;28;20182;-83
2023/07/24 10:12:31;;;;;;;189.37;170.40;;;;;;;;;;5040353;28;20177;-84
2023/07/24 10:14:56;;;;;;;6.90;5.90;;;;;;;;;;5042861;28;20192;-82
2023/07/24 10:17:35;;;;;;;6.20;5.33;;;;;;;;;;5036268;28;20182;-81
2023/07/24 10:20:04;;;;;;;6.13;5.57;;;;;;;;;;5045673;28;20195;-81
2023/07/24 10:22:29;;;;;;;6.40;5.77;;;;;;;;;;5044583;28;20273;-80
2023/07/24 10:24:55;;;;;;;6.83;5.90;;;;;;;;;;5040708;28;20263;-80
2023/07/24 10:27:24;;;;;;;7.40;6.30;;;;;;;;;;5047779;28;20200;-79
2023/07/24 10:29:59;;;;;;;7.47;6.37;;;;;;;;;;5038380;28;20181;-79
2023/07/24 10:32:24;;;;;;;10.00;6.07;;;;;;;;;;5038431;28;20189;-78
2023/07/24 10:34:58;;;;;;;6.97;6.23;;;;;;;;;;5042057;28;20168;-78
2023/07/24 10:37:34;;;;;;;7.33;5.93;;;;;;;;;;5034479;28;20173;-78
2023/07/24 10:39:59;;;;;;;6.30;5.70;;;;;;;;;;5038965;28;20188;-78
2023/07/24 10:42:24;;;;;;;7.10;6.07;;;;;;;;;;5033821;28;20200;-78
2023/07/24 10:44:49;;;;;;;7.97;6.13;;;;;;;;;;5041193;28;20192;-77
2023/07/24 10:47:14;;;;;;;6.53;5.70;;;;;;;;;;5041212;28;20296;-77
2023/07/24 10:49:42;;;;;;;6.63;5.93;;;;;;;;;;5037739;28;20225;-76
2023/07/24 10:52:08;;;;;;;6.47;5.47;;;;;;;;;;5042843;28;20234;-77
2023/07/24 10:54:33;;;;;;;7.77;6.50;;;;;;;;;;5040330;28;20199;-77
2023/07/24 10:57:02;;;;;;;8.13;6.43;;;;;;;;;;5041743;28;20194;-77
2023/07/24 10:59:37;;;;;;;218.70;199.40;;;;;;;;;;5042109;28;20175;-77
2023/07/24 11:02:04;;;;;;;390.27;355.10;;;;;;;;;;5046985;28;20232;-77
2023/07/24 11:04:29;;;;;;;7.60;6.23;;;;;;;;;;5052895;28;20182;-77
2023/07/24 11:06:57;;;;;;;7.27;6.13;;;;;;;;;;5040728;28;20287;-78
2023/07/24 11:09:22;;;;;;;6.80;6.10;;;;;;;;;;5046959;28;20175;-78
2023/07/24 11:11:47;;;;;;;6.93;5.90;;;;;;;;;;5049817;28;20194;-78
2023/07/24 11:14:13;;;;;;;6.77;6.07;;;;;;;;;;5052368;28;20265;-79
2023/07/24 11:16:47;;;;;;;7.93;6.77;;;;;;;;;;5042680;28;20269;-79
2023/07/24 11:19:12;;;;;;;6.23;5.63;;;;;;;;;;5046902;28;20201;-79
2023/07/24 11:21:38;;;;;;;8.00;5.93;;;;;;;;;;5045801;28;20175;-79
2023/07/24 11:24:07;;;;;;;6.67;5.87;;;;;;;;;;5048972;28;20188;-79
2023/07/24 11:26:33;;;;;;;41.37;20.77;;;;;;;;;;5043435;28;20361;-80
2023/07/24 11:28:59;;;;;;;7.60;6.28;;;;;;;;;;5048973;28;20210;-83
2023/07/24 11:31:24;;;;;;;10.20;6.18;;;;;;;;;;5047398;28;20188;-82
2023/07/24 11:33:50;;;;;;;10.00;5.63;;;;;;;;;;5041191;28;20170;-80
2023/07/24 11:36:15;;;;;;;7.37;5.50;;;;;;;;;;5047479;28;20189;-81
2023/07/24 11:38:42;;;;;;;8.80;6.43;;;;;;;;;;5048891;28;20264;-81
2023/07/24 11:41:08;;;;;;;6.77;5.77;;;;;;;;;;5043724;28;20175;-81
2023/07/24 11:43:33;;;;;;;5.90;5.27;;;;;;;;;;5040866;28;20216;-81
2023/07/24 11:45:58;;;;;;;6.27;4.93;;;;;;;;;;5040807;28;20206;-81
2023/07/24 11:48:24;;;;;;;7.87;5.93;;;;;;;;;;5046718;28;20175;-82
2023/07/24 11:50:51;;;;;;;14.10;6.17;;;;;;;;;;5041746;28;20252;-81
2023/07/24 11:53:20;;;;;;;15.33;7.50;;;;;;;;;;5045118;28;20192;-83
2023/07/24 11:55:45;;;;;;;45.57;36.63;;;;;;;;;;5040781;28;20180;-83
2023/07/24 11:58:14;;;;;;;23.50;7.70;;;;;;;;;;5046311;28;20233;-83
2023/07/24 12:00:39;;;;;;;7.97;5.47;;;;;;;;;;5036742;28;20172;-82
2023/07/24 12:03:04;;;;;;;8.17;6.17;;;;;;;;;;5042142;28;20183;-84
2023/07/24 12:05:30;;;;;;;6.47;5.43;;;;;;;;;;5041874;28;20195;-81
2023/07/24 12:07:55;;;;;;;11.03;5.87;;;;;;;;;;5035359;28;20183;-80
2023/07/24 12:10:27;;;;;;;64.30;48.80;;;;;;;;;;5039476;28;20178;-80
2023/07/24 12:12:53;;;;;;;6.63;5.43;;;;;;;;;;5038658;28;20187;-81
2023/07/24 12:15:18;;;;;;;42.77;26.67;;;;;;;;;;5043493;28;20183;-81
2023/07/24 12:17:43;;;;;;;33.30;19.75;;;;;;;;;;5039130;28;20182;-82
2023/07/24 12:20:12;;;;;;;317.50;291.33;;;;;;;;;;5043555;28;20215;-81
2023/07/24 12:22:38;;;;;;;31.03;27.90;;;;;;;;;;5044863;28;20188;-79
2023/07/24 12:25:03;;;;;;;6.70;5.13;;;;;;;;;;5042508;28;20188;-79
2023/07/24 12:27:29;;;;;;;6.00;4.93;;;;;;;;;;5046785;28;20201;-79
2023/07/24 12:29:54;;;;;;;7.07;5.80;;;;;;;;;;5041412;28;20191;-80
2023/07/24 12:32:20;;;;;;;6.50;5.70;;;;;;;;;;5035101;28;20213;-79
2023/07/24 12:34:48;;;;;;;18.53;9.93;;;;;;;;;;5035506;28;20176;-79
2023/07/24 12:37:14;;;;;;;6.43;5.57;;;;;;;;;;5041989;28;20239;-78
2023/07/24 12:39:39;;;;;;;780.00;713.13;;;;;;;;;;5046886;28;20184;-78
2023/07/24 12:42:05;;;;;;;16.33;12.17;;;;;;;;;;5033872;28;20243;-77
2023/07/24 12:44:30;;;;;;;7.00;6.20;;;;;;;;;;5043628;28;20173;-77
2023/07/24 12:46:55;;;;;;;6.17;5.53;;;;;;;;;;5045908;28;20209;-77
2023/07/24 12:49:21;;;;;;;6.47;5.80;;;;;;;;;;5035089;28;20178;-78
2023/07/24 12:51:46;;;;;;;7.13;5.57;;;;;;;;;;5038711;28;20174;-79
2023/07/24 12:54:11;;;;;;;6.27;5.67;;;;;;;;;;5044187;28;20208;-77
2023/07/24 12:56:36;;;;;;;7.37;5.63;;;;;;;;;;5042637;28;20181;-77
2023/07/24 12:59:01;;;;;;;5.87;5.17;;;;;;;;;;5043457;28;20189;-76
2023/07/24 13:01:28;;;;;;;7.50;5.67;;;;;;;;;;5034429;28;20317;-77
2023/07/24 13:03:53;;;;;;;5.65;5.05;;;;;;;;;;5042086;28;20225;-76
2023/07/24 13:06:19;;;;;;;6.67;5.33;;;;;;;;;;5042428;28;20209;-77
2023/07/24 13:08:44;;;;;;;5.27;4.73;;;;;;;;;;5040744;28;20213;-77
2023/07/24 13:11:09;;;;;;;6.87;5.73;;;;;;;;;;5046953;28;20179;-76
2023/07/24 13:13:36;;;;;;;5.90;5.20;;;;;;;;;;5048390;28;20185;-78
2023/07/24 13:16:01;;;;;;;7.77;5.83;;;;;;;;;;5048292;28;20179;-79
2023/07/24 13:18:26;;;;;;;7.53;5.70;;;;;;;;;;5048942;28;20186;-77
2023/07/24 13:20:52;;;;;;;6.27;5.67;;;;;;;;;;5043969;28;20194;-77
2023/07/24 13:23:17;;;;;;;6.97;6.27;;;;;;;;;;5045406;28;20175;-75
2023/07/24 13:25:42;;;;;;;6.03;4.70;;;;;;;;;;5047665;28;20175;-79
2023/07/24 13:28:08;;;;;;;6.03;5.43;;;;;;;;;;5043035;28;20188;-79
2023/07/24 13:30:33;;;;;;;5.53;5.03;;;;;;;;;;5050396;28;20174;-79
2023/07/24 13:32:58;;;;;;;6.00;5.23;;;;;;;;;;5047909;28;20244;-80
2023/07/24 13:35:23;;;;;;;8.20;5.27;;;;;;;;;;5051815;28;20165;-80
2023/07/24 13:37:48;;;;;;;6.97;5.87;;;;;;;;;;5048090;28;20175;-80
2023/07/24 13:40:14;;;;;;;6.37;5.77;;;;;;;;;;5045953;28;20172;-81
2023/07/24 13:42:39;;;;;;;6.10;5.50;;;;;;;;;;5041729;28;20188;-81
2023/07/24 13:45:04;;;;;;;6.17;5.43;;;;;;;;;;5043803;28;20190;-81
2023/07/24 13:47:30;;;;;;;5.70;5.00;;;;;;;;;;5046091;28;20225;-80
2023/07/24 13:49:55;;;;;;;5.97;5.37;;;;;;;;;;5043554;28;20190;-81
2023/07/24 13:52:20;;;;;;;7.53;5.87;;;;;;;;;;5049922;28;20174;-81
2023/07/24 13:54:45;;;;;;;5.80;5.20;;;;;;;;;;5041942;28;20178;-81
2023/07/24 13:57:12;;;;;;;6.40;5.80;;;;;;;;;;5045148;28;20219;-82
2023/07/24 13:59:40;;;;;;;5.40;4.90;;;;;;;;;;5048082;28;20235;-81
2023/07/24 14:02:06;;;;;;;11.47;5.33;;;;;;;;;;5046615;28;20314;-82
2023/07/24 14:04:31;;;;;;;7.77;5.07;;;;;;;;;;5045202;28;20208;-82
2023/07/24 14:06:56;;;;;;;4.93;4.47;;;;;;;;;;5040337;28;20221;-82
2023/07/24 14:09:22;;;;;;;5.70;4.93;;;;;;;;;;5041956;28;20174;-82
2023/07/24 14:11:47;;;;;;;5.10;4.60;;;;;;;;;;5037875;28;20181;-83
2023/07/24 14:14:12;;;;;;;4.93;4.40;;;;;;;;;;5039689;28;20193;-81
2023/07/24 14:16:37;;;;;;;4.40;4.00;;;;;;;;;;5044650;28;20186;-82
2023/07/24 14:19:03;;;;;;;6.40;4.67;;;;;;;;;;5050573;28;20228;-82
2023/07/24 14:21:28;;;;;;;6.03;4.70;;;;;;;;;;5043150;28;20270;-82
2023/07/24 14:23:53;;;;;;;4.37;3.97;;;;;;;;;;5039935;28;20181;-83
2023/07/24 14:26:18;;;;;;;6.67;4.30;;;;;;;;;;5037118;28;20195;-82
2023/07/24 14:28:43;;;;;;;4.97;4.50;;;;;;;;;;5045905;28;20192;-82
2023/07/24 14:31:09;;;;;;;4.77;4.30;;;;;;;;;;5042092;28;20188;-83